Date,TemperatureHighF,TemperatureAvgF,TemperatureLowF,DewpointHighF,DewpointAvgF,DewpointLowF,HumidityHigh,HumidityAvg,HumidityLow,PressureMaxIn,PressureMinIn,WindSpeedMaxMPH,WindSpeedAvgMPH,GustSpeedMaxMPH,PrecipitationSumIn
2013-1-1,45,42,40,36,32,28,77,69,60,30.00,29.88,8,0,10,0.00
2013-1-2,40,37,34,33,29,25,77,73,67,30.12,29.97,7,0,9,0.00
2013-1-9,55,49,42,47,43,36,91,82,51,30.36,30.21,15,1,16,0.01
2013-1-10,55,49,44,38,35,33,69,58,47,30.57,30.36,13,1,15,0.00
2013-1-11,45,43,39,44,39,33,100,86,68,30.48,30.08,4,0,4,0.02
2013-1-12,53,46,43,50,45,43,100,99,90,30.16,30.07,5,0,6,0.01
2013-1-13,57,50,44,57,50,44,100,100,100,30.13,29.95,5,0,6,0.01
2013-1-14,61,54,41,61,51,40,100,88,73,30.27,29.92,14,1,16,0.11
2013-1-15,41,40,37,41,40,37,100,99,94,30.32,30.13,7,0,9,0.81
2013-1-16,42,39,36,42,39,36,100,100,100,30.14,29.83,7,0,10,0.27
2013-1-17,44,42,40,43,38,34,100,86,69,30.12,29.95,9,1,9,0.02
2013-1-18,40,36,31,34,24,18,81,64,47,30.47,30.01,18,2,20,0.00
2013-1-19,54,42,32,37,32,26,83,67,51,30.41,29.95,12,1,13,0.00
2013-1-20,60,47,39,40,30,18,74,53,30,30.05,29.80,16,2,18,0.00
2013-1-21,47,38,32,33,25,17,65,58,49,30.07,29.76,21,2,24,0.00
2013-1-22,32,23,19,18,6,3,59,48,39,30.28,29.89,22,4,24,0.00
2013-1-23,27,22,16,18,8,5,78,54,42,30.34,30.13,13,1,14,0.00
2013-1-24,28,23,19,19,14,8,92,71,45,30.51,30.07,17,2,23,0.01
2013-1-25,25,22,20,22,12,6,98,67,50,30.51,30.06,8,0,8,0.00
2013-1-26,35,30,24,27,24,21,88,81,67,30.42,30.08,12,1,14,0.03
2013-1-27,39,32,28,26,24,21,85,71,56,30.58,30.42,7,0,9,0.00
2013-1-28,48,38,32,46,36,26,99,92,78,30.49,30.04,11,0,11,0.17
2013-1-29,70,56,45,59,51,44,100,86,67,30.11,29.95,8,0,9,0.00
2013-1-30,71,64,58,66,61,55,100,91,78,29.95,29.17,19,2,19,0.85
2013-1-31,64,45,32,64,33,18,100,64,45,29.90,29.11,24,5,25,0.33